createdAt,value
2019-05-18T00:00:10.856Z,67.91
2019-05-18T00:02:40.266Z,67.96
2019-05-18T00:05:10.607Z,68.34
2019-05-18T00:07:40.012Z,68.68
2019-05-18T00:10:09.850Z,68.87
2019-05-18T00:12:39.320Z,69.11
2019-05-18T00:15:09.275Z,69.29
2019-05-18T00:17:38.703Z,69.60
2019-05-18T00:20:08.627Z,69.95
2019-05-18T00:22:38.044Z,69.93
2019-05-18T00:25:07.892Z,70.14
2019-05-18T00:27:37.342Z,70.38
2019-05-18T00:30:08.298Z,70.46
2019-05-18T00:32:37.753Z,70.65
2019-05-18T00:35:08.102Z,70.84
2019-05-18T00:37:37.521Z,71.07
2019-05-18T00:40:10.394Z,71.02
2019-05-18T00:42:39.804Z,71.10
2019-05-18T00:45:09.755Z,71.25
2019-05-18T00:47:41.874Z,71.72
2019-05-18T00:50:10.665Z,71.80
2019-05-18T00:52:40.072Z,72.01
2019-05-18T00:55:09.930Z,72.31
2019-05-18T00:57:39.321Z,72.13
2019-05-18T01:00:11.063Z,72.34
2019-05-18T01:02:40.459Z,72.23
2019-05-18T01:05:10.527Z,72.12
2019-05-18T01:07:39.938Z,72.03
2019-05-18T01:10:09.991Z,72.41
2019-05-18T01:12:39.397Z,72.46
2019-05-18T01:15:09.735Z,72.83
2019-05-18T01:17:39.132Z,72.81
2019-05-18T01:20:08.993Z,72.75
2019-05-18T01:22:38.464Z,72.74
2019-05-18T01:25:08.116Z,73.08
2019-05-18T01:27:37.516Z,72.80
2019-05-18T01:30:09.064Z,72.98
2019-05-18T01:32:38.453Z,73.08
2019-05-18T01:35:08.511Z,73.13
2019-05-18T01:37:38.008Z,73.46
2019-05-18T01:40:08.064Z,73.72
2019-05-18T01:42:37.644Z,73.36
2019-05-18T01:45:16.466Z,73.45
2019-05-18T01:47:39.408Z,73.60
2019-05-18T01:50:09.247Z,73.68
2019-05-18T01:52:38.696Z,73.63
2019-05-18T01:55:10.451Z,73.63
2019-05-18T01:57:39.923Z,73.66
2019-05-18T02:00:11.575Z,73.71
2019-05-18T02:02:40.995Z,73.58
2019-05-18T02:05:11.018Z,73.53
2019-05-18T02:07:40.488Z,73.81
2019-05-18T02:10:10.279Z,73.76
2019-05-18T02:12:39.679Z,73.92
2019-05-18T02:15:10.529Z,73.95
2019-05-18T02:17:39.933Z,74.19
2019-05-18T02:20:09.879Z,74.16
2019-05-18T02:22:39.273Z,73.99
2019-05-18T02:25:09.071Z,73.65
2019-05-18T02:27:38.479Z,73.30
2019-05-18T02:30:10.366Z,73.08
2019-05-18T02:32:39.805Z,73.43
2019-05-18T02:35:09.462Z,73.29
2019-05-18T02:37:38.865Z,73.45
2019-05-18T02:40:08.527Z,73.61
2019-05-18T02:42:37.991Z,73.69
2019-05-18T02:45:08.038Z,73.70
2019-05-18T02:47:37.430Z,74.09
2019-05-18T02:50:08.587Z,74.12
2019-05-18T02:52:37.984Z,74.29
2019-05-18T02:55:07.941Z,74.26
2019-05-18T02:57:37.408Z,74.42
2019-05-18T03:00:10.969Z,74.65
2019-05-18T03:02:40.426Z,74.58
2019-05-18T03:05:10.294Z,74.62
2019-05-18T03:07:39.704Z,74.87
2019-05-18T03:10:09.558Z,74.91
2019-05-18T03:12:39.022Z,75.68
2019-05-18T03:15:09.371Z,75.38
2019-05-18T03:17:38.893Z,75.66
2019-05-18T03:20:09.549Z,75.85
2019-05-18T03:22:39.024Z,76.50
2019-05-18T03:25:08.999Z,76.57
2019-05-18T03:27:38.400Z,76.60
2019-05-18T03:30:08.474Z,76.55
2019-05-18T03:32:37.862Z,76.89
2019-05-18T03:35:07.636Z,77.20
2019-05-18T03:37:37.033Z,77.11
2019-05-18T03:40:06.871Z,76.75
2019-05-18T03:42:36.362Z,76.25
2019-05-18T03:45:05.933Z,75.46
2019-05-18T03:47:35.322Z,75.48
2019-05-18T03:50:07.369Z,75.48
2019-05-18T03:52:36.771Z,75.71
2019-05-18T03:55:06.404Z,75.91
2019-05-18T03:57:35.818Z,76.04
2019-05-18T04:00:08.600Z,75.89
2019-05-18T04:02:38.802Z,76.08
2019-05-18T04:05:08.265Z,76.12
2019-05-18T04:07:37.791Z,75.78
2019-05-18T04:10:08.600Z,75.76
2019-05-18T04:12:38.013Z,75.98
2019-05-18T04:15:08.867Z,76.11
2019-05-18T04:17:38.370Z,76.13
2019-05-18T04:20:08.213Z,76.22
2019-05-18T04:22:37.631Z,76.72
2019-05-18T04:25:07.298Z,76.49
2019-05-18T04:27:36.704Z,76.45
2019-05-18T04:30:07.973Z,76.24
2019-05-18T04:32:37.387Z,76.17
2019-05-18T04:35:07.642Z,76.22
2019-05-18T04:37:37.043Z,76.42
2019-05-18T04:40:08.567Z,76.25
2019-05-18T04:42:37.971Z,76.10
2019-05-18T04:45:07.855Z,75.89
2019-05-18T04:47:37.269Z,76.11
2019-05-18T04:50:09.430Z,75.98
2019-05-18T04:52:38.845Z,75.89
2019-05-18T04:55:08.706Z,76.08
2019-05-18T04:57:38.103Z,75.82
2019-05-18T05:00:08.464Z,75.51
2019-05-18T05:02:37.852Z,75.44
2019-05-18T05:05:07.626Z,75.47
2019-05-18T05:07:37.016Z,75.14
2019-05-18T05:10:09.430Z,75.40
2019-05-18T05:12:38.824Z,75.31
2019-05-18T05:15:08.391Z,75.54
2019-05-18T05:17:37.813Z,75.43
2019-05-18T05:20:19.343Z,75.02
2019-05-18T05:22:38.794Z,74.97
2019-05-18T05:25:08.505Z,74.99
2019-05-18T05:27:37.918Z,74.99
2019-05-18T05:30:08.534Z,74.67
2019-05-18T05:32:37.953Z,74.79
2019-05-18T05:35:07.909Z,74.53
2019-05-18T05:37:37.420Z,74.36
2019-05-18T05:40:08.318Z,74.56
2019-05-18T05:42:37.749Z,74.63
2019-05-18T05:45:07.576Z,74.10
2019-05-18T05:47:36.991Z,73.96
2019-05-18T05:50:09.819Z,74.20
2019-05-18T05:52:39.313Z,73.79
2019-05-18T05:55:09.529Z,73.28
2019-05-18T05:57:38.995Z,73.56
2019-05-18T06:00:09.550Z,73.49
2019-05-18T06:02:38.944Z,72.77
2019-05-18T06:05:08.811Z,71.06
2019-05-18T06:07:38.202Z,71.30
2019-05-18T06:10:07.797Z,71.78
2019-05-18T06:12:37.205Z,71.89
2019-05-18T06:15:08.751Z,71.52
2019-05-18T06:17:38.167Z,70.52
2019-05-18T06:20:08.772Z,69.77
2019-05-18T06:22:38.184Z,70.80
2019-05-18T06:25:08.442Z,71.40
2019-05-18T06:27:38.056Z,69.66
2019-05-18T06:30:08.443Z,69.16
2019-05-18T06:32:38.259Z,69.22
2019-05-18T06:35:07.910Z,68.75
2019-05-18T06:37:37.319Z,68.36
2019-05-18T06:40:07.883Z,67.27
2019-05-18T06:42:37.317Z,67.40
2019-05-18T06:45:07.757Z,66.45
2019-05-18T06:47:37.202Z,66.96
2019-05-18T06:50:11.184Z,67.34
2019-05-18T06:52:39.370Z,67.39
2019-05-18T06:55:09.093Z,68.25
2019-05-18T06:57:39.152Z,67.46
2019-05-18T07:00:10.880Z,65.57
2019-05-18T07:02:40.300Z,64.61
2019-05-18T07:05:10.525Z,64.01
2019-05-18T07:07:39.943Z,64.25
2019-05-18T07:10:09.744Z,63.54
2019-05-18T07:12:39.100Z,62.93
2019-05-18T07:15:09.454Z,61.11
2019-05-18T07:17:38.876Z,61.32
2019-05-18T07:20:08.713Z,61.83
2019-05-18T07:22:38.385Z,61.92
2019-05-18T07:25:08.183Z,62.34
2019-05-18T07:27:37.674Z,61.29
2019-05-18T07:30:08.932Z,61.29
2019-05-18T07:32:38.353Z,62.25
2019-05-18T07:35:08.102Z,62.35
2019-05-18T07:37:37.519Z,61.82
2019-05-18T07:40:07.966Z,60.61
2019-05-18T07:42:37.454Z,61.10
2019-05-18T07:45:08.188Z,61.62
2019-05-18T07:47:37.604Z,61.00
2019-05-18T07:50:08.054Z,61.83
2019-05-18T07:52:37.481Z,61.67
2019-05-18T07:55:07.308Z,61.08
2019-05-18T07:57:36.764Z,60.15
2019-05-18T08:00:06.932Z,59.73
2019-05-18T08:02:36.376Z,59.46
2019-05-18T08:05:10.291Z,58.93
2019-05-18T08:07:39.638Z,58.74
2019-05-18T08:10:09.733Z,56.38
2019-05-18T08:12:39.200Z,55.63
2019-05-18T08:15:14.526Z,55.87
2019-05-18T08:17:43.938Z,56.41
2019-05-18T08:20:13.571Z,53.52
2019-05-18T08:22:42.968Z,53.07
2019-05-18T08:25:13.234Z,52.93
2019-05-18T08:27:42.721Z,52.16
2019-05-18T08:30:12.287Z,53.38
2019-05-18T08:32:41.687Z,50.33
2019-05-18T08:35:11.432Z,49.93
2019-05-18T08:37:40.815Z,49.50
2019-05-18T08:40:10.973Z,49.85
2019-05-18T08:42:40.371Z,49.33
2019-05-18T08:45:11.038Z,49.17
2019-05-18T08:47:40.427Z,47.25
2019-05-18T08:50:10.197Z,48.77
2019-05-18T08:52:39.581Z,46.78
2019-05-18T08:55:09.635Z,44.98
2019-05-18T08:57:40.091Z,46.73
2019-05-18T09:00:10.323Z,46.41
2019-05-18T09:02:39.791Z,43.58
2019-05-18T09:05:09.657Z,43.52
2019-05-18T09:07:39.109Z,43.61
2019-05-18T09:10:09.119Z,43.15
2019-05-18T09:12:38.549Z,43.18
2019-05-18T09:15:08.615Z,43.16
2019-05-18T09:17:38.020Z,42.31
2019-05-18T09:20:08.883Z,42.33
2019-05-18T09:22:38.397Z,43.92
2019-05-18T09:25:08.051Z,43.62
2019-05-18T09:27:37.516Z,43.44
2019-05-18T09:30:07.890Z,44.01
2019-05-18T09:32:37.770Z,43.63
2019-05-18T09:35:08.033Z,44.56
2019-05-18T09:37:37.429Z,43.67
2019-05-18T09:40:07.785Z,40.73
2019-05-18T09:42:37.333Z,40.37
2019-05-18T09:45:08.686Z,37.38
2019-05-18T09:47:38.108Z,35.69
2019-05-18T09:50:08.453Z,32.56
2019-05-18T09:52:46.151Z,31.89
2019-05-18T09:55:10.546Z,28.79
2019-05-18T09:57:39.950Z,28.75
2019-05-18T10:00:11.652Z,30.25
2019-05-18T10:02:42.637Z,28.06
2019-05-18T10:05:12.340Z,28.57
2019-05-18T10:07:41.732Z,30.27
2019-05-18T10:10:11.388Z,32.11
2019-05-18T10:12:40.824Z,32.51
2019-05-18T10:15:11.375Z,34.95
2019-05-18T10:17:40.710Z,36.00
2019-05-18T10:20:10.658Z,34.97
2019-05-18T10:22:53.333Z,34.51
2019-05-18T10:25:11.815Z,34.52
2019-05-18T10:27:41.242Z,32.90
2019-05-18T10:30:11.092Z,29.29
2019-05-18T10:32:40.500Z,28.65
2019-05-18T10:35:10.346Z,27.45
2019-05-18T10:37:39.754Z,28.38
2019-05-18T10:40:09.922Z,27.61
2019-05-18T10:42:39.302Z,23.54
2019-05-18T10:45:09.207Z,22.91
2019-05-18T10:47:38.598Z,22.32
2019-05-18T10:50:09.159Z,20.24
2019-05-18T10:52:38.547Z,21.08
2019-05-18T10:55:08.801Z,19.60
2019-05-18T10:57:38.215Z,18.58
2019-05-18T11:00:10.195Z,19.88
2019-05-18T11:02:39.722Z,19.85
2019-05-18T11:05:10.479Z,19.67
2019-05-18T11:07:39.894Z,19.94
2019-05-18T11:10:09.937Z,21.88
2019-05-18T11:12:39.578Z,21.66
2019-05-18T11:15:10.361Z,21.44
2019-05-18T11:17:39.878Z,21.58
2019-05-18T11:20:11.038Z,22.54
2019-05-18T11:22:40.517Z,24.61
2019-05-18T11:25:10.258Z,22.86
2019-05-18T11:27:39.679Z,22.31
2019-05-18T11:30:10.438Z,21.48
2019-05-18T11:32:39.978Z,23.30
2019-05-18T11:35:09.975Z,22.99
2019-05-18T11:37:39.359Z,22.92
2019-05-18T11:40:10.749Z,22.84
2019-05-18T11:42:40.212Z,23.11
2019-05-18T11:45:11.661Z,24.18
2019-05-18T11:47:41.105Z,23.18
2019-05-18T11:50:11.322Z,23.76
2019-05-18T11:52:40.873Z,24.58
2019-05-18T11:55:10.841Z,24.20
2019-05-18T11:57:40.299Z,23.36
2019-05-18T12:00:12.355Z,24.02
2019-05-18T12:02:41.750Z,23.65
2019-05-18T12:05:12.115Z,23.39
2019-05-18T12:07:42.211Z,24.60
2019-05-18T12:10:12.708Z,25.94
2019-05-18T12:12:42.618Z,27.90
2019-05-18T12:15:13.431Z,29.67
2019-05-18T12:17:42.873Z,31.33
2019-05-18T12:20:13.542Z,32.43
2019-05-18T12:22:43.025Z,33.57
2019-05-18T12:25:13.476Z,35.59
2019-05-18T12:27:43.057Z,38.02
2019-05-18T12:30:12.963Z,39.44
2019-05-18T12:32:42.392Z,41.14
2019-05-18T12:35:12.282Z,43.96
2019-05-18T12:37:41.701Z,46.51
2019-05-18T12:40:14.149Z,49.65
2019-05-18T12:42:43.949Z,49.11
2019-05-18T12:45:13.871Z,51.00
2019-05-18T12:47:43.304Z,55.25
2019-05-18T12:50:15.345Z,55.12
2019-05-18T12:52:44.927Z,56.54
2019-05-18T12:55:16.176Z,58.70
2019-05-18T12:57:45.671Z,61.64
2019-05-18T13:00:16.867Z,63.52
2019-05-18T13:02:46.268Z,61.26
2019-05-18T13:05:16.950Z,63.70
2019-05-18T13:07:46.325Z,63.50
2019-05-18T13:10:17.733Z,65.22
2019-05-18T13:12:47.265Z,61.92
2019-05-18T13:15:17.139Z,64.95
2019-05-18T13:17:46.553Z,63.68
2019-05-18T13:20:16.683Z,61.14
2019-05-18T13:22:46.105Z,62.44
2019-05-18T13:25:16.249Z,59.79
2019-05-18T13:27:45.717Z,61.14
2019-05-18T13:30:20.266Z,60.87
2019-05-18T13:32:50.455Z,61.87
2019-05-18T13:35:19.950Z,59.69
2019-05-18T13:37:49.383Z,63.68
2019-05-18T13:40:19.423Z,62.76
2019-05-18T13:42:48.906Z,60.83
2019-05-18T13:45:18.671Z,60.66
2019-05-18T13:47:48.102Z,62.16
2019-05-18T13:50:18.117Z,61.01
2019-05-18T13:52:47.552Z,62.14
2019-05-18T13:55:17.214Z,60.21
2019-05-18T13:57:46.628Z,60.46
2019-05-18T14:00:18.968Z,62.53
2019-05-18T14:02:49.309Z,59.75
2019-05-18T14:05:19.151Z,62.85
2019-05-18T14:07:48.586Z,60.04
2019-05-18T14:10:18.433Z,61.34
2019-05-18T14:12:47.877Z,60.29
2019-05-18T14:15:17.594Z,61.12
2019-05-18T14:17:47.004Z,61.11
2019-05-18T14:20:17.544Z,62.20
2019-05-18T14:22:46.947Z,62.16
2019-05-18T14:25:19.651Z,61.96
2019-05-18T14:27:47.809Z,61.13
2019-05-18T14:30:18.763Z,62.73
2019-05-18T14:32:48.168Z,64.07
2019-05-18T14:35:17.829Z,64.49
2019-05-18T14:37:47.221Z,64.67
2019-05-18T14:40:16.870Z,64.27
2019-05-18T14:42:46.268Z,64.10
2019-05-18T14:45:16.030Z,63.49
2019-05-18T14:47:45.430Z,63.71
2019-05-18T14:50:15.388Z,64.24
2019-05-18T14:52:44.810Z,62.58
2019-05-18T14:55:14.374Z,62.23
2019-05-18T14:57:43.940Z,60.72
2019-05-18T15:00:14.160Z,59.70
2019-05-18T15:02:43.554Z,59.41
2019-05-18T15:05:13.408Z,58.95
2019-05-18T15:07:42.821Z,58.30
2019-05-18T15:10:14.249Z,58.97
2019-05-18T15:12:43.658Z,58.28
2019-05-18T15:15:14.370Z,58.33
2019-05-18T15:17:43.774Z,60.61
2019-05-18T15:20:14.049Z,58.37
2019-05-18T15:22:43.446Z,60.15
2019-05-18T15:25:13.331Z,61.30
2019-05-18T15:27:42.818Z,62.71
2019-05-18T15:30:13.471Z,61.21
2019-05-18T15:32:42.856Z,62.65
2019-05-18T15:35:12.445Z,62.30
2019-05-18T15:37:43.746Z,60.86
2019-05-18T15:40:13.505Z,62.49
2019-05-18T15:42:42.899Z,62.46
2019-05-18T15:45:14.106Z,64.38
2019-05-18T15:47:43.475Z,62.71
2019-05-18T15:50:13.131Z,64.09
2019-05-18T15:52:42.540Z,63.17
2019-05-18T15:55:12.188Z,62.61
2019-05-18T15:57:41.585Z,63.10
2019-05-18T16:00:11.545Z,64.07
2019-05-18T16:02:40.943Z,63.34
2019-05-18T16:05:10.512Z,62.49
2019-05-18T16:07:39.915Z,62.63
2019-05-18T16:10:09.878Z,62.93
2019-05-18T16:12:39.442Z,61.86
2019-05-18T16:15:09.651Z,62.56
2019-05-18T16:17:40.241Z,62.01
2019-05-18T16:20:11.365Z,60.45
2019-05-18T16:22:44.111Z,61.30
2019-05-18T16:25:12.429Z,61.27
2019-05-18T16:27:41.813Z,62.44
2019-05-18T16:30:11.919Z,60.96
2019-05-18T16:32:41.316Z,62.04
2019-05-18T16:35:11.767Z,61.56
2019-05-18T16:37:41.912Z,61.70
2019-05-18T16:40:11.938Z,61.39
2019-05-18T16:42:41.349Z,62.03
2019-05-18T16:45:11.523Z,61.88
2019-05-18T16:47:40.977Z,61.87
2019-05-18T16:50:11.239Z,61.33
2019-05-18T16:52:40.636Z,61.40
2019-05-18T16:55:10.656Z,62.05
2019-05-18T16:57:40.117Z,62.42
2019-05-18T17:00:16.037Z,62.62
2019-05-18T17:02:44.217Z,62.33
2019-05-18T17:05:14.563Z,62.83
2019-05-18T17:07:43.978Z,62.28
2019-05-18T17:10:15.520Z,63.65
2019-05-18T17:12:44.932Z,62.90
2019-05-18T17:15:15.067Z,62.82
2019-05-18T17:17:44.479Z,63.09
2019-05-18T17:20:14.515Z,62.65
2019-05-18T17:22:44.023Z,62.80
2019-05-18T17:25:13.943Z,62.89
2019-05-18T17:27:43.366Z,63.30
2019-05-18T17:30:13.299Z,63.40
2019-05-18T17:32:42.712Z,62.90
2019-05-18T17:35:12.200Z,64.17
2019-05-18T17:37:41.624Z,64.02
2019-05-18T17:40:11.292Z,63.73
2019-05-18T17:42:40.719Z,64.17
2019-05-18T17:45:11.561Z,64.70
2019-05-18T17:47:40.974Z,65.56
2019-05-18T17:50:11.315Z,64.72
2019-05-18T17:52:40.804Z,65.48
2019-05-18T17:55:10.645Z,65.14
2019-05-18T17:57:40.136Z,65.81
2019-05-18T18:00:10.757Z,65.62
2019-05-18T18:02:40.579Z,66.26
2019-05-18T18:05:10.403Z,66.18
2019-05-18T18:07:39.810Z,66.81
2019-05-18T18:10:09.859Z,66.96
2019-05-18T18:12:39.278Z,68.19
2019-05-18T18:15:09.726Z,68.60
2019-05-18T18:17:39.212Z,68.65
2019-05-18T18:20:09.637Z,69.61
2019-05-18T18:22:39.063Z,69.86
2019-05-18T18:25:08.822Z,70.79
2019-05-18T18:27:38.244Z,70.50
2019-05-18T18:30:09.354Z,70.79
2019-05-18T18:32:38.788Z,71.02
2019-05-18T18:35:08.522Z,71.21
2019-05-18T18:37:37.942Z,71.32
2019-05-18T18:40:08.578Z,71.30
2019-05-18T18:42:38.119Z,72.13
2019-05-18T18:45:08.953Z,71.30
2019-05-18T18:47:38.377Z,72.25
2019-05-18T18:50:09.394Z,71.91
2019-05-18T18:52:39.078Z,72.15
2019-05-18T18:55:09.190Z,70.47
2019-05-18T18:57:41.836Z,71.21
2019-05-18T19:00:11.257Z,71.13
2019-05-18T19:02:40.696Z,71.12
2019-05-18T19:05:10.792Z,71.37
2019-05-18T19:07:40.198Z,71.49
2019-05-18T19:10:10.235Z,72.42
2019-05-18T19:12:39.690Z,72.92
2019-05-18T19:15:10.263Z,73.41
2019-05-18T19:17:39.806Z,73.54
2019-05-18T19:20:09.763Z,74.09
2019-05-18T19:22:39.253Z,74.08
2019-05-18T19:25:10.206Z,74.14
2019-05-18T19:27:39.682Z,74.52
2019-05-18T19:30:10.376Z,74.52
2019-05-18T19:32:39.919Z,74.58
2019-05-18T19:35:10.213Z,74.49
2019-05-18T19:37:39.574Z,74.52
2019-05-18T19:40:10.435Z,74.09
2019-05-18T19:42:39.887Z,73.82
2019-05-18T19:45:10.275Z,73.74
2019-05-18T19:47:39.670Z,73.62
2019-05-18T19:50:09.627Z,73.66
2019-05-18T19:52:39.026Z,74.20
2019-05-18T19:55:09.492Z,74.01
2019-05-18T19:57:38.966Z,74.38
2019-05-18T20:00:09.529Z,74.34
2019-05-18T20:02:38.991Z,74.32
2019-05-18T20:05:09.568Z,74.63
2019-05-18T20:07:39.111Z,74.77
2019-05-18T20:10:10.312Z,75.28
2019-05-18T20:12:39.797Z,75.54
2019-05-18T20:15:10.850Z,75.18
2019-05-18T20:17:40.241Z,75.14
2019-05-18T20:20:10.201Z,75.05
2019-05-18T20:22:43.076Z,75.10
2019-05-18T20:25:12.836Z,74.55
2019-05-18T20:27:42.337Z,74.98
2019-05-18T20:30:12.209Z,75.06
2019-05-18T20:32:41.611Z,75.37
2019-05-18T20:35:11.556Z,76.07
2019-05-18T20:37:41.390Z,75.66
2019-05-18T20:40:10.964Z,75.40
2019-05-18T20:42:40.363Z,76.00
2019-05-18T20:45:10.219Z,76.52
2019-05-18T20:47:39.698Z,76.36
2019-05-18T20:50:10.155Z,76.75
2019-05-18T20:52:39.633Z,76.64
2019-05-18T20:55:09.250Z,76.93
2019-05-18T20:57:38.659Z,76.96
2019-05-18T21:00:08.928Z,76.91
2019-05-18T21:02:38.344Z,77.05
2019-05-18T21:05:08.631Z,76.92
2019-05-18T21:07:38.034Z,76.96
2019-05-18T21:10:07.889Z,77.00
2019-05-18T21:12:37.628Z,77.44
2019-05-18T21:15:09.027Z,76.94
2019-05-18T21:17:38.413Z,77.03
2019-05-18T21:20:08.607Z,76.83
2019-05-18T21:22:38.097Z,76.73
2019-05-18T21:25:08.465Z,76.74
2019-05-18T21:27:38.127Z,76.73
2019-05-18T21:30:08.174Z,77.25
2019-05-18T21:32:37.588Z,77.54
2019-05-18T21:35:08.538Z,78.97
2019-05-18T21:37:37.935Z,79.08
2019-05-18T21:40:07.690Z,78.69
2019-05-18T21:42:37.168Z,78.69
2019-05-18T21:45:07.026Z,79.24
2019-05-18T21:47:36.431Z,79.47
2019-05-18T21:50:07.703Z,79.16
2019-05-18T21:52:37.161Z,79.69
2019-05-18T21:55:07.463Z,79.75
2019-05-18T21:57:36.857Z,79.26
2019-05-18T22:00:07.786Z,79.51
2019-05-18T22:02:41.290Z,79.55
2019-05-18T22:05:11.530Z,78.60
2019-05-18T22:07:40.930Z,79.41
2019-05-18T22:10:24.966Z,79.51
2019-05-18T22:12:41.671Z,79.77
2019-05-18T22:15:11.412Z,79.97
2019-05-18T22:17:58.324Z,79.86
2019-05-18T22:20:27.771Z,78.89
2019-05-18T22:22:57.224Z,79.06
2019-05-18T22:25:26.640Z,79.13
2019-05-18T22:27:56.147Z,79.94
2019-05-18T22:30:25.887Z,79.48
2019-05-18T22:32:55.347Z,80.32
2019-05-18T22:35:24.847Z,80.69
2019-05-18T22:37:54.327Z,80.97
2019-05-18T22:40:23.751Z,81.29
2019-05-18T22:42:53.623Z,81.91
2019-05-18T22:45:23.052Z,81.25
2019-05-18T22:47:52.452Z,81.87
2019-05-18T22:50:21.994Z,81.88
2019-05-18T22:52:51.455Z,82.54
2019-05-18T22:55:20.857Z,82.08
2019-05-18T22:57:50.272Z,81.82
2019-05-18T23:00:20.155Z,81.60
2019-05-18T23:02:49.719Z,81.50
2019-05-18T23:05:19.132Z,81.65
2019-05-18T23:07:48.587Z,82.13
2019-05-18T23:10:18.397Z,82.04
2019-05-18T23:12:47.820Z,81.67
2019-05-18T23:15:17.209Z,81.58
2019-05-18T23:17:46.616Z,81.59
2019-05-18T23:20:16.129Z,82.08
2019-05-18T23:22:45.569Z,81.57
2019-05-18T23:25:15.037Z,81.73
2019-05-18T23:27:44.476Z,81.67
2019-05-18T23:30:14.245Z,82.03
2019-05-18T23:32:43.669Z,82.70
2019-05-18T23:35:13.103Z,82.25
2019-05-18T23:37:42.577Z,82.08
2019-05-18T23:40:12.719Z,82.02
2019-05-18T23:42:42.155Z,82.24
2019-05-18T23:45:11.895Z,82.26
2019-05-18T23:47:41.320Z,82.21
2019-05-18T23:50:11.318Z,82.36
2019-05-18T23:52:40.738Z,83.09
2019-05-18T23:55:10.838Z,83.36
2019-05-18T23:57:40.325Z,83.06
